Time;durP1;ratioP1;P1;durP2;ratioP2;P2;SDS_P1;SDS_P2;PMS_P1;PMS_P2;Temp;Humidity;BMP_temperature;BMP_pressure;BME280_temperature;BME280_humidity;BME280_pressure;Samples;Min_cycle;Max_cycle;Signal;HPM_P1;HPM_P2
2023/11/06 00:00:48;;;;;;;;;;;;;;;20.26;44.17;99687.73;102706;1294;61411;-82
2023/11/06 00:03:14;;;;;;;;;;;;;;;20.25;44.18;99703.11;103030;1291;61388;-82
2023/11/06 00:05:40;;;;;;;;;;;;;;;20.26;44.16;99710.24;102735;1289;61540;-84
2023/11/06 00:08:06;;;;;;;;;;;;;;;20.25;44.37;99713.84;103010;1293;61366;-82
2023/11/06 00:10:32;;;;;;;;;;;;;;;20.25;44.11;99736.35;103037;1293;61414;-84
2023/11/06 00:12:59;;;;;;;;;;;;;;;20.26;44.12;99751.34;103051;1291;61398;-83
2023/11/06 00:15:25;;;;;;;;;;;;;;;20.25;44.08;99784.58;102732;1289;61806;-81
2023/11/06 00:17:50;;;;;;;;;;;;;;;20.26;44.19;99764.38;102711;1295;61389;-85
2023/11/06 00:20:16;;;;;;;;;;;;;;;20.25;44.11;99755.83;102767;1295;61487;-81
2023/11/06 00:22:42;;;;;;;;;;;;;;;20.25;44.13;99758.34;102992;1290;75682;-85
2023/11/06 00:25:08;;;;;;;;;;;;;;;20.25;44.14;99750.63;102997;1291;61349;-84
2023/11/06 00:27:34;;;;;;;;;;;;;;;20.25;44.23;99751.39;102783;1289;61402;-83
2023/11/06 00:29:59;;;;;;;;;;;;;;;20.25;44.21;99760.84;103027;1294;62252;-83
2023/11/06 00:32:25;;;;;;;;;;;;;;;20.25;44.16;99765.49;102706;1294;61452;-82
2023/11/06 00:34:50;;;;;;;;;;;;;;;20.25;44.37;99775.15;102786;1291;62390;-84
2023/11/06 00:37:17;;;;;;;;;;;;;;;20.25;44.14;99772.84;102809;1290;61482;-82
2023/11/06 00:39:42;;;;;;;;;;;;;;;20.25;44.24;99769.27;102810;1294;61406;-82
2023/11/06 00:42:08;;;;;;;;;;;;;;;20.24;44.22;99771.45;102768;1293;61407;-82
2023/11/06 00:44:34;;;;;;;;;;;;;;;20.24;44.19;99774.83;103009;1293;62448;-82
2023/11/06 00:46:59;;;;;;;;;;;;;;;20.24;44.35;99775.76;103007;1290;61814;-81
2023/11/06 00:49:25;;;;;;;;;;;;;;;20.24;44.25;99774.88;102840;1291;61414;-82
2023/11/06 00:51:51;;;;;;;;;;;;;;;20.24;44.24;99770.40;102745;1291;62152;-84
2023/11/06 00:54:16;;;;;;;;;;;;;;;20.24;44.20;99774.88;102996;1293;61387;-83
2023/11/06 00:56:42;;;;;;;;;;;;;;;20.24;44.33;99775.58;102984;1293;61458;-82
2023/11/06 00:59:09;;;;;;;;;;;;;;;20.23;44.18;99774.20;102749;1294;62299;-84
2023/11/06 01:01:34;;;;;;;;;;;;;;;20.24;44.34;99770.22;102741;1289;61809;-82
2023/11/06 01:04:01;;;;;;;;;;;;;;;20.24;44.21;99775.08;102995;1294;61468;-83
2023/11/06 01:06:26;;;;;;;;;;;;;;;20.23;44.32;99777.60;103027;1292;61727;-83
2023/11/06 01:08:53;;;;;;;;;;;;;;;20.23;44.27;99776.05;102733;1294;75782;-85
2023/11/06 01:11:18;;;;;;;;;;;;;;;20.23;44.30;99781.00;102780;1291;62310;-84
2023/11/06 01:13:45;;;;;;;;;;;;;;;20.23;44.29;99781.39;102775;1294;61481;-82
2023/11/06 01:16:12;;;;;;;;;;;;;;;20.23;44.28;99777.64;103023;1303;73457;-82
2023/11/06 01:18:37;;;;;;;;;;;;;;;20.23;44.31;99781.92;102759;1293;61481;-83
2023/11/06 01:21:03;;;;;;;;;;;;;;;20.23;44.27;99782.86;102990;1291;61402;-83
2023/11/06 01:23:32;;;;;;;;;;;;;;;20.23;44.26;99786.38;102750;1292;62658;-84
2023/11/06 01:25:57;;;;;;;;;;;;;;;20.23;44.29;99794.96;102744;1291;61438;-83
2023/11/06 01:28:23;;;;;;;;;;;;;;;20.22;44.20;99798.79;102750;1291;61414;-82
2023/11/06 01:30:49;;;;;;;;;;;;;;;20.23;44.44;99805.34;102684;1291;62124;-83
2023/11/06 01:33:15;;;;;;;;;;;;;;;20.22;44.24;99803.95;102717;1292;61330;-82
2023/11/06 01:35:41;;;;;;;;;;;;;;;20.22;44.28;99813.09;103085;1292;61853;-83
2023/11/06 01:38:10;;;;;;;;;;;;;;;20.22;44.33;99813.27;103078;1290;61390;-82
2023/11/06 01:40:35;;;;;;;;;;;;;;;20.21;44.47;99812.08;102752;1293;74677;-81
2023/11/06 01:43:05;;;;;;;;;;;;;;;20.22;44.33;99814.21;103024;1293;61324;-82
2023/11/06 01:45:37;;;;;;;;;;;;;;;20.21;44.15;99821.02;102777;1290;61323;-83
2023/11/06 01:48:04;;;;;;;;;;;;;;;20.22;44.24;99828.66;102948;1291;72185;-83
2023/11/06 01:50:31;;;;;;;;;;;;;;;20.21;44.33;99830.30;102778;1293;74477;-83
2023/11/06 01:52:57;;;;;;;;;;;;;;;20.22;44.36;99834.38;102821;1290;62185;-82
2023/11/06 01:55:22;;;;;;;;;;;;;;;20.21;44.21;99839.23;102706;1291;61400;-83
2023/11/06 01:57:48;;;;;;;;;;;;;;;20.21;44.40;99853.72;102751;1290;61367;-84
2023/11/06 02:00:15;;;;;;;;;;;;;;;20.21;44.34;99859.43;102692;1295;61856;-86
2023/11/06 02:02:41;;;;;;;;;;;;;;;20.21;44.36;99862.87;102785;1292;61801;-82
2023/11/06 02:05:09;;;;;;;;;;;;;;;20.21;44.35;99870.56;102993;1291;61751;-83
2023/11/06 02:07:35;;;;;;;;;;;;;;;20.21;44.28;99871.45;102736;1289;61315;-82
2023/11/06 02:10:01;;;;;;;;;;;;;;;20.21;44.39;99874.65;102779;1294;61911;-81
2023/11/06 02:12:26;;;;;;;;;;;;;;;20.20;44.36;99879.67;102643;1290;61418;-83
2023/11/06 02:15:16;;;;;;;;;;;;;;;20.21;44.34;99883.25;102726;1289;61456;-83
2023/11/06 02:17:42;;;;;;;;;;;;;;;20.21;44.31;99876.28;102552;1299;73937;-83
2023/11/06 02:20:09;;;;;;;;;;;;;;;20.21;44.27;99879.64;102338;1299;61695;-84
2023/11/06 02:22:35;;;;;;;;;;;;;;;20.21;44.27;99882.36;101244;1296;1466379;-82
2023/11/06 02:25:00;;;;;;;;;;;;;;;20.21;44.28;99882.52;102508;1294;61483;-86
2023/11/06 02:27:26;;;;;;;;;;;;;;;20.20;44.31;99892.90;102306;1299;61675;-83
2023/11/06 02:29:51;;;;;;;;;;;;;;;20.20;44.30;99891.12;102493;1298;61390;-82
2023/11/06 02:32:17;;;;;;;;;;;;;;;20.20;44.24;99889.00;102377;1300;62188;-82
2023/11/06 02:34:45;;;;;;;;;;;;;;;20.20;44.15;99888.85;102317;1294;62140;-83
2023/11/06 02:37:10;;;;;;;;;;;;;;;20.20;44.41;99891.88;102379;1300;61402;-86
2023/11/06 02:39:37;;;;;;;;;;;;;;;20.20;44.34;99893.85;102580;1298;61406;-83
2023/11/06 02:42:04;;;;;;;;;;;;;;;20.20;44.36;99906.69;102519;1297;62471;-85
2023/11/06 02:44:29;;;;;;;;;;;;;;;20.19;44.33;99907.45;102323;1297;61394;-83
2023/11/06 02:46:55;;;;;;;;;;;;;;;20.20;44.30;99917.43;102359;1294;61524;-82
2023/11/06 02:49:22;;;;;;;;;;;;;;;20.19;44.38;99925.86;102294;1294;61514;-84
2023/11/06 02:51:48;;;;;;;;;;;;;;;20.20;44.27;99931.02;102477;1300;61468;-81
2023/11/06 02:54:13;;;;;;;;;;;;;;;20.20;44.37;99936.02;102342;1294;62475;-82
2023/11/06 02:56:42;;;;;;;;;;;;;;;20.19;44.44;99935.14;102782;1289;61334;-81
2023/11/06 02:59:10;;;;;;;;;;;;;;;20.19;44.37;99944.26;102760;1292;61321;-82
2023/11/06 03:01:36;;;;;;;;;;;;;;;20.19;44.37;99950.88;102985;1291;72474;-81
2023/11/06 03:04:01;;;;;;;;;;;;;;;20.19;44.39;99951.42;102735;1294;61511;-86
2023/11/06 03:06:28;;;;;;;;;;;;;;;20.18;44.26;99950.59;102934;1289;61372;-82
2023/11/06 03:08:54;;;;;;;;;;;;;;;20.19;44.39;99951.98;102792;1291;61440;-82
2023/11/06 03:11:20;;;;;;;;;;;;;;;20.19;44.25;99954.52;102987;1293;61402;-83
2023/11/06 03:14:09;;;;;;;;;;;;;;;20.18;44.30;99964.89;102677;1291;61417;-81
2023/11/06 03:16:35;;;;;;;;;;;;;;;20.18;44.41;99965.63;102538;1294;62061;-82
2023/11/06 03:19:01;;;;;;;;;;;;;;;20.19;44.52;99979.88;102503;1294;61775;-85
2023/11/06 03:21:26;;;;;;;;;;;;;;;20.18;44.48;99986.54;102461;1298;61449;-82
2023/11/06 03:23:52;;;;;;;;;;;;;;;20.18;44.51;99989.19;102528;1299;61441;-85
2023/11/06 03:26:21;;;;;;;;;;;;;;;20.18;44.41;99986.54;102501;1294;61380;-81
2023/11/06 03:28:46;;;;;;;;;;;;;;;20.18;44.25;99989.19;102543;1294;63072;-82
2023/11/06 03:31:12;;;;;;;;;;;;;;;20.18;44.48;99985.79;102536;1295;61824;-84
2023/11/06 03:33:38;;;;;;;;;;;;;;;20.18;44.28;99984.55;102322;1294;62506;-81
2023/11/06 03:36:07;;;;;;;;;;;;;;;20.17;44.34;99989.63;102311;1294;61657;-81
2023/11/06 03:38:33;;;;;;;;;;;;;;;20.18;44.36;99991.03;102484;1294;61385;-83
2023/11/06 03:41:25;;;;;;;;;;;;;;;20.18;44.33;99997.63;102493;1300;61417;-83
2023/11/06 03:43:51;;;;;;;;;;;;;;;20.17;44.44;100008.94;101974;1303;74793;-82
2023/11/06 03:46:18;;;;;;;;;;;;;;;20.17;44.54;100011.79;101985;1301;61341;-84
2023/11/06 03:48:45;;;;;;;;;;;;;;;20.17;44.48;100014.31;101993;1302;61419;-83
2023/11/06 03:51:10;;;;;;;;;;;;;;;20.17;44.50;100010.91;101877;1305;61314;-83
2023/11/06 03:53:36;;;;;;;;;;;;;;;20.17;44.44;100011.98;102243;1297;61511;-82
2023/11/06 03:56:02;;;;;;;;;;;;;;;20.17;44.50;100018.79;102258;1297;61670;-84
2023/11/06 03:58:28;;;;;;;;;;;;;;;20.17;44.49;100027.52;102319;1297;61399;-83
2023/11/06 04:00:54;;;;;;;;;;;;;;;20.17;44.49;100024.48;102276;1297;61581;-84
2023/11/06 04:03:45;;;;;;;;;;;;;;;20.17;44.18;100027.52;102356;1299;61331;-82
2023/11/06 04:06:11;;;;;;;;;;;;;;;20.16;44.54;100033.11;101983;1303;75430;-83
2023/11/06 04:08:36;;;;;;;;;;;;;;;20.16;44.43;100032.58;101890;1303;61635;-81
2023/11/06 04:11:02;;;;;;;;;;;;;;;20.16;44.56;100031.50;101871;1306;61496;-85
2023/11/06 04:13:28;;;;;;;;;;;;;;;20.16;44.48;100040.98;101884;1303;61494;-82
2023/11/06 04:15:53;;;;;;;;;;;;;;;20.17;44.56;100041.15;101920;1308;61471;-82
2023/11/06 04:18:45;;;;;;;;;;;;;;;20.16;44.60;100046.34;101976;1303;61477;-81
2023/11/06 04:21:10;;;;;;;;;;;;;;;20.16;44.48;100046.17;101900;1300;61399;-82
2023/11/06 04:23:37;;;;;;;;;;;;;;;20.16;44.44;100041.90;102173;1299;62105;-82
2023/11/06 04:26:29;;;;;;;;;;;;;;;20.16;44.52;100046.91;102134;1303;61424;-84
2023/11/06 04:28:55;;;;;;;;;;;;;;;20.16;44.41;100053.33;101801;1308;74359;-83
2023/11/06 04:31:22;;;;;;;;;;;;;;;20.16;44.47;100060.98;101808;1307;61425;-82
2023/11/06 04:33:47;;;;;;;;;;;;;;;20.16;44.48;100066.20;101792;1307;61824;-83
2023/11/06 04:36:13;;;;;;;;;;;;;;;20.16;44.50;100065.11;101751;1313;61506;-82
2023/11/06 04:38:39;;;;;;;;;;;;;;;20.16;44.38;100068.68;101788;1307;62580;-84
2023/11/06 04:41:04;;;;;;;;;;;;;;;20.15;44.38;100068.41;101802;1307;61610;-83
2023/11/06 04:43:30;;;;;;;;;;;;;;;20.15;44.51;100072.89;101557;1306;61402;-85
2023/11/06 04:45:55;;;;;;;;;;;;;;;20.14;44.53;100077.80;101744;1305;61352;-82
2023/11/06 04:48:21;;;;;;;;;;;;;;;20.13;44.53;100076.48;101656;1306;61861;-83
2023/11/06 04:50:46;;;;;;;;;;;;;;;20.12;44.58;100080.84;101664;1315;61434;-82
2023/11/06 04:53:12;;;;;;;;;;;;;;;20.09;44.54;100084.94;101736;1307;61905;-84
2023/11/06 04:55:38;;;;;;;;;;;;;;;20.06;44.50;100086.03;101694;1311;62755;-82
2023/11/06 04:58:04;;;;;;;;;;;;;;;20.06;44.51;100091.66;101942;1308;61434;-85
2023/11/06 05:00:29;;;;;;;;;;;;;;;20.05;44.68;100096.34;102010;1305;61798;-84
2023/11/06 05:02:55;;;;;;;;;;;;;;;20.04;44.60;100102.46;102065;1302;62578;-82
2023/11/06 05:05:21;;;;;;;;;;;;;;;20.04;44.59;100103.55;102092;1302;61500;-83
2023/11/06 05:07:47;;;;;;;;;;;;;;;20.03;44.60;100107.89;102692;1293;61354;-83
2023/11/06 05:10:13;;;;;;;;;;;;;;;20.03;44.63;100102.20;102555;1298;61459;-84
2023/11/06 05:12:39;;;;;;;;;;;;;;;20.03;44.60;100101.02;102616;1294;62232;-82
2023/11/06 05:15:07;;;;;;;;;;;;;;;20.02;44.58;100103.40;102641;1293;61463;-82
2023/11/06 05:17:32;;;;;;;;;;;;;;;20.01;44.68;100108.80;102663;1294;61305;-84
2023/11/06 05:19:58;;;;;;;;;;;;;;;20.01;44.71;100113.09;102492;1299;62066;-83
2023/11/06 05:22:27;;;;;;;;;;;;;;;20.01;44.80;100123.31;102719;1294;73562;-83
2023/11/06 05:24:52;;;;;;;;;;;;;;;20.00;44.62;100124.23;102954;1291;61394;-83
2023/11/06 05:27:18;;;;;;;;;;;;;;;20.00;44.69;100127.49;102812;1295;62622;-81
2023/11/06 05:29:44;;;;;;;;;;;;;;;20.00;44.73;100127.48;103019;1291;61290;-84
2023/11/06 05:32:10;;;;;;;;;;;;;;;19.99;44.58;100125.20;102955;1290;61462;-83
2023/11/06 05:34:38;;;;;;;;;;;;;;;20.00;44.66;100122.96;102991;1293;61318;-82
2023/11/06 05:37:04;;;;;;;;;;;;;;;20.01;44.59;100132.58;103446;1289;61417;-82
2023/11/06 05:39:30;;;;;;;;;;;;;;;20.02;44.58;100132.88;103112;1289;61641;-82
2023/11/06 05:41:55;;;;;;;;;;;;;;;20.03;44.64;100136.86;103162;1294;61403;-83
2023/11/06 05:44:21;;;;;;;;;;;;;;;20.04;44.63;100143.20;103194;1291;61378;-82
2023/11/06 05:46:46;;;;;;;;;;;;;;;20.06;44.58;100158.57;103550;1293;61858;-82
2023/11/06 05:49:12;;;;;;;;;;;;;;;20.08;44.47;100159.20;103749;1291;61461;-81
2023/11/06 05:51:38;;;;;;;;;;;;;;;20.10;44.45;100159.04;103903;1288;61391;-81
2023/11/06 05:54:29;;;;;;;;;;;;;;;20.11;44.57;100166.81;103778;1291;61432;-83
2023/11/06 05:56:55;;;;;;;;;;;;;;;20.12;44.57;100173.19;103872;1294;74461;-80
2023/11/06 05:59:20;;;;;;;;;;;;;;;20.13;44.62;100183.98;103951;1294;62571;-80
2023/11/06 06:01:47;;;;;;;;;;;;;;;20.13;44.69;100189.84;104044;1294;61539;-80
2023/11/06 06:04:13;;;;;;;;;;;;;;;20.14;44.57;100197.52;103926;1294;61271;-80
2023/11/06 06:06:39;;;;;;;;;;;;;;;20.13;44.62;100202.05;104148;1297;61434;-80
2023/11/06 06:09:04;;;;;;;;;;;;;;;20.14;44.69;100212.88;104295;1294;61515;-81
2023/11/06 06:11:36;;;;;;;;;;;;;;;20.15;44.71;100218.52;104276;1295;61448;-80
2023/11/06 06:14:02;;;;;;;;;;;;;;;20.16;44.82;100221.84;104482;1296;61608;-80
2023/11/06 06:16:28;;;;;;;;;;;;;;;20.18;44.89;100229.70;104365;1294;61308;-80
2023/11/06 06:18:54;;;;;;;;;;;;;;;20.19;44.84;100230.47;104266;1294;59321;-83
2023/11/06 06:21:19;;;;;;;;;;;;;;;20.21;44.84;100230.55;104206;1295;61522;-80
2023/11/06 06:23:45;;;;;;;;;;;;;;;20.23;44.75;100231.85;104192;1296;59434;-81
2023/11/06 06:26:10;;;;;;;;;;;;;;;20.24;44.72;100238.52;104016;1299;61321;-80
2023/11/06 06:28:36;;;;;;;;;;;;;;;20.26;44.70;100244.79;103933;1294;61364;-81
2023/11/06 06:31:02;;;;;;;;;;;;;;;20.29;44.67;100253.91;103770;1294;75024;-79
2023/11/06 06:33:27;;;;;;;;;;;;;;;20.30;44.62;100259.49;103884;1297;59458;-81
2023/11/06 06:35:53;;;;;;;;;;;;;;;20.32;44.60;100258.48;104256;1288;61477;-81
2023/11/06 06:38:18;;;;;;;;;;;;;;;20.33;44.59;100271.05;104158;1289;61371;-80
2023/11/06 06:40:45;;;;;;;;;;;;;;;20.35;44.53;100263.80;104543;1289;61376;-81
2023/11/06 06:43:10;;;;;;;;;;;;;;;20.35;44.62;100250.75;104476;1293;74474;-81
2023/11/06 06:45:36;;;;;;;;;;;;;;;20.36;44.53;100254.25;104687;1289;61402;-81
2023/11/06 06:48:01;;;;;;;;;;;;;;;20.37;44.64;100258.05;104461;1293;61298;-81
2023/11/06 06:50:27;;;;;;;;;;;;;;;20.39;44.65;100259.73;104102;1291;61454;-81
2023/11/06 06:52:53;;;;;;;;;;;;;;;20.41;44.54;100257.27;104736;1289;61439;-81
2023/11/06 06:55:22;;;;;;;;;;;;;;;20.42;44.66;100264.89;104566;1291;75667;-81
2023/11/06 06:57:48;;;;;;;;;;;;;;;20.40;44.63;100265.00;104741;1288;61171;-81
2023/11/06 07:00:14;;;;;;;;;;;;;;;20.36;44.81;100266.61;104801;1291;61382;-81
2023/11/06 07:02:40;;;;;;;;;;;;;;;20.34;44.92;100269.06;105033;1291;59623;-81
2023/11/06 07:05:05;;;;;;;;;;;;;;;20.33;45.14;100277.19;105022;1289;61248;-81
2023/11/06 07:07:31;;;;;;;;;;;;;;;20.34;45.24;100280.69;105126;1290;61377;-81
2023/11/06 07:09:56;;;;;;;;;;;;;;;20.35;45.36;100284.71;105236;1289;61553;-82
2023/11/06 07:12:22;;;;;;;;;;;;;;;20.37;45.28;100295.24;104870;1291;59758;-81
2023/11/06 07:14:47;;;;;;;;;;;;;;;20.39;45.28;100310.12;104715;1291;61320;-81
2023/11/06 07:17:13;;;;;;;;;;;;;;;20.41;45.28;100313.17;104613;1291;61263;-81
2023/11/06 07:19:38;;;;;;;;;;;;;;;20.43;45.34;100319.10;104623;1289;61257;-81
2023/11/06 07:22:04;;;;;;;;;;;;;;;20.46;45.23;100323.91;104920;1289;62458;-81
2023/11/06 07:24:30;;;;;;;;;;;;;;;20.49;45.23;100321.86;105188;1289;59372;-81
2023/11/06 07:26:55;;;;;;;;;;;;;;;20.52;45.20;100320.02;105471;1291;61312;-81
2023/11/06 07:29:21;;;;;;;;;;;;;;;20.55;45.16;100318.52;105547;1291;59129;-81
2023/11/06 07:31:50;;;;;;;;;;;;;;;20.59;45.27;100318.43;105166;1290;60013;-81
2023/11/06 07:34:20;;;;;;;;;;;;;;;20.63;45.17;100317.65;105298;1289;61211;-81
2023/11/06 07:36:45;;;;;;;;;;;;;;;20.65;45.25;100313.34;105254;1291;72873;-81
2023/11/06 07:39:11;;;;;;;;;;;;;;;20.67;45.27;100318.52;105221;1293;61425;-80
2023/11/06 07:41:37;;;;;;;;;;;;;;;20.70;45.14;100315.83;105199;1289;61307;-81
2023/11/06 07:44:03;;;;;;;;;;;;;;;20.72;45.17;100318.70;105048;1289;61344;-81
2023/11/06 07:46:29;;;;;;;;;;;;;;;20.74;45.20;100321.75;105097;1289;59436;-81
2023/11/06 07:48:55;;;;;;;;;;;;;;;20.76;45.16;100325.17;105275;1290;60830;-80
2023/11/06 07:51:21;;;;;;;;;;;;;;;20.78;45.21;100322.40;105258;1291;74278;-84
2023/11/06 07:53:46;;;;;;;;;;;;;;;20.78;45.16;100322.90;105180;1291;59711;-82
2023/11/06 07:56:13;;;;;;;;;;;;;;;20.78;45.18;100324.14;104980;1290;61388;-82
2023/11/06 07:58:41;;;;;;;;;;;;;;;20.76;45.31;100323.44;105150;1289;59641;-81
2023/11/06 08:01:08;;;;;;;;;;;;;;;20.72;45.40;100326.23;104840;1289;75488;-82
2023/11/06 08:03:33;;;;;;;;;;;;;;;20.69;45.53;100336.12;105174;1289;59415;-82
2023/11/06 08:05:58;;;;;;;;;;;;;;;20.64;45.63;100342.52;105094;1291;61344;-82
2023/11/06 08:08:24;;;;;;;;;;;;;;;20.63;45.72;100345.31;105124;1290;61929;-81
2023/11/06 08:10:49;;;;;;;;;;;;;;;20.62;45.83;100342.55;105022;1291;59357;-81
2023/11/06 08:14:34;;;;;;;13.20;3.00;;;;;;;20.66;45.95;100345.42;104378;1291;600140;-80
2023/11/06 08:17:00;;;;;;;16.30;2.60;;;;;;;20.67;45.80;100345.57;104353;1294;58856;-81
2023/11/06 08:19:26;;;;;;;7.40;2.80;;;;;;;20.67;45.96;100352.31;104572;1291;59374;-80
2023/11/06 08:21:51;;;;;;;10.00;2.90;;;;;;;20.69;46.01;100356.15;104725;1293;58589;-81
2023/11/06 08:24:17;;;;;;;8.20;2.90;;;;;;;20.69;46.08;100356.67;104565;1294;59280;-81
2023/11/06 08:26:45;;;;;;;6.90;2.80;;;;;;;20.70;45.94;100355.20;104727;1292;60150;-81
2023/11/06 08:29:11;;;;;;;10.70;3.10;;;;;;;20.70;45.96;100358.22;104652;1294;261296;-81
2023/11/06 08:31:37;;;;;;;6.60;2.60;;;;;;;20.70;46.03;100366.10;104728;1290;58755;-81
2023/11/06 08:34:03;;;;;;;8.00;2.80;;;;;;;20.69;46.08;100369.73;104687;1291;58730;-81
2023/11/06 08:36:29;;;;;;;12.90;2.80;;;;;;;20.69;45.90;100371.52;104679;1291;59257;-81
2023/11/06 08:38:54;;;;;;;9.20;2.70;;;;;;;20.69;46.07;100370.64;104766;1290;59791;-81
2023/11/06 08:41:21;;;;;;;14.20;2.90;;;;;;;20.68;45.86;100367.83;104722;1292;59786;-81
2023/11/06 08:43:47;;;;;;;7.00;2.60;;;;;;;20.67;46.01;100367.19;104533;1292;59650;-81
2023/11/06 08:46:13;;;;;;;8.30;3.10;;;;;;;20.67;45.94;100370.27;104852;1295;57975;-82
2023/11/06 08:48:42;;;;;;;10.10;3.20;;;;;;;20.65;45.95;100373.80;104632;1289;72459;-82
2023/11/06 08:51:07;;;;;;;15.00;3.50;;;;;;;20.63;45.87;100374.28;105966;1291;73634;-82
2023/11/06 08:53:33;;;;;;;16.60;3.20;;;;;;;20.61;45.94;100375.48;105780;1287;58774;-82
2023/11/06 08:55:59;;;;;;;14.80;4.20;;;;;;;20.58;46.14;100374.08;106030;1288;57714;-81
2023/11/06 08:58:25;;;;;;;14.20;3.10;;;;;;;20.60;46.55;100370.73;106068;1288;57462;-82
2023/11/06 09:00:51;;;;;;;20.50;3.60;;;;;;;20.59;46.71;100369.20;106153;1288;57488;-83
2023/11/06 09:03:16;;;;;;;10.60;3.20;;;;;;;20.59;47.05;100374.38;105905;1288;58074;-81
2023/11/06 09:05:42;;;;;;;14.00;3.80;;;;;;;20.61;47.07;100379.27;106049;1288;57438;-81
2023/11/06 09:08:08;;;;;;;23.50;3.60;;;;;;;20.61;47.20;100372.83;106047;1288;59898;-82
2023/11/06 09:10:34;;;;;;;13.50;3.70;;;;;;;20.63;47.27;100376.27;106017;1288;57426;-82
2023/11/06 09:13:00;;;;;;;13.90;3.70;;;;;;;20.65;47.20;100376.09;106046;1288;58144;-81
2023/11/06 09:15:26;;;;;;;14.90;3.10;;;;;;;20.65;47.25;100377.73;105967;1288;57880;-81
2023/11/06 09:17:53;;;;;;;8.80;2.90;;;;;;;20.64;47.12;100382.09;106214;1288;57300;-82
2023/11/06 09:20:20;;;;;;;8.10;3.10;;;;;;;20.64;47.10;100378.27;104906;1288;57832;-81
2023/11/06 09:22:46;;;;;;;6.50;3.00;;;;;;;20.66;47.11;100382.29;105199;1288;59773;-81
2023/11/06 09:25:12;;;;;;;13.80;2.90;;;;;;;20.68;47.01;100380.91;106054;1288;57922;-81
2023/11/06 09:27:41;;;;;;;11.40;2.90;;;;;;;20.69;46.93;100379.41;105855;1288;57880;-81
2023/11/06 09:30:09;;;;;;;8.10;3.00;;;;;;;20.69;46.85;100382.42;104999;1293;72387;-81
2023/11/06 09:32:35;;;;;;;10.70;3.40;;;;;;;20.68;46.86;100381.79;104962;1289;72646;-81
2023/11/06 09:35:03;;;;;;;10.30;3.00;;;;;;;20.67;46.82;100384.35;105128;1288;60297;-81
2023/11/06 09:37:29;;;;;;;7.10;2.80;;;;;;;20.67;46.82;100382.20;105216;1289;60068;-81
2023/11/06 09:39:55;;;;;;;16.00;3.30;;;;;;;20.67;46.95;100386.48;105102;1288;59376;-82
2023/11/06 09:42:20;;;;;;;14.20;3.00;;;;;;;20.66;46.73;100387.27;105020;1288;59602;-84
2023/11/06 09:44:46;;;;;;;13.60;3.30;;;;;;;20.65;46.78;100386.33;105185;1288;59604;-81
2023/11/06 09:47:12;;;;;;;11.50;3.10;;;;;;;20.62;46.79;100389.54;104993;1288;59664;-82
2023/11/06 09:49:43;;;;;;;10.20;3.00;;;;;;;20.57;46.79;100385.09;105031;1293;59347;-81
2023/11/06 09:52:09;;;;;;;12.00;3.10;;;;;;;20.53;46.77;100383.79;105280;1288;71504;-83
2023/11/06 09:54:36;;;;;;;11.90;3.40;;;;;;;20.52;46.85;100385.64;105190;1288;57869;-81
2023/11/06 09:57:04;;;;;;;16.90;3.70;;;;;;;20.56;46.93;100389.81;105237;1289;59634;-81
2023/11/06 09:59:29;;;;;;;14.40;3.90;;;;;;;20.60;47.00;100388.09;105072;1294;62896;-82
2023/11/06 10:01:55;;;;;;;12.30;3.30;;;;;;;20.61;47.16;100388.20;105428;1288;59196;-81
2023/11/06 10:04:21;;;;;;;14.40;3.30;;;;;;;20.61;47.14;100386.93;105496;1289;57578;-82
2023/11/06 10:06:50;;;;;;;16.20;3.30;;;;;;;20.62;47.32;100385.10;105337;1286;58718;-84
2023/11/06 10:09:20;;;;;;;;;;;;;;;20.64;47.29;100387.25;105259;1288;60114;-82
2023/11/06 10:11:45;;;;;;;21.30;3.60;;;;;;;20.63;47.46;100384.45;105384;1290;72472;-80
2023/11/06 10:14:11;;;;;;;23.70;3.70;;;;;;;20.67;47.48;100384.91;105493;1288;59715;-82
2023/11/06 10:16:37;;;;;;;14.70;3.20;;;;;;;20.70;47.71;100387.90;105338;1288;59679;-82
2023/11/06 10:19:13;;;;;;;19.50;3.70;;;;;;;20.71;47.71;100398.21;105269;1289;59722;-81
2023/11/06 10:21:43;;;;;;;14.80;3.40;;;;;;;20.71;47.92;100402.52;105221;1288;73846;-81
2023/11/06 10:24:11;;;;;;;16.70;2.70;;;;;;;20.70;48.01;100398.61;105129;1288;73285;-81
2023/11/06 10:26:38;;;;;;;17.30;3.10;;;;;;;20.70;47.99;100398.79;104802;1288;59728;-80
2023/11/06 10:29:17;;;;;;;18.00;3.50;;;;;;;20.70;48.19;100405.56;105000;1288;59990;-81
2023/11/06 10:31:47;;;;;;;13.80;2.70;;;;;;;20.71;48.39;100409.65;105098;1289;72820;-81
2023/11/06 10:34:29;;;;;;;15.20;3.00;;;;;;;20.70;48.43;100408.42;104924;1288;74026;-81
2023/11/06 10:37:05;;;;;;;17.50;3.10;;;;;;;20.71;48.55;100411.79;104964;1288;59585;-81
2023/11/06 10:39:33;;;;;;;19.80;3.70;;;;;;;20.71;48.52;100410.38;105110;1288;59973;-81
2023/11/06 10:42:04;;;;;;;14.20;3.40;;;;;;;20.71;48.64;100415.20;105153;1288;72891;-81
2023/11/06 10:44:34;;;;;;;15.40;2.80;;;;;;;20.68;48.60;100418.42;104930;1288;72764;-81
2023/11/06 10:47:09;;;;;;;17.20;3.40;;;;;;;20.67;48.81;100421.70;104769;1294;60484;-81
2023/11/06 10:49:36;;;;;;;14.20;2.90;;;;;;;20.67;48.75;100423.50;104322;1294;60987;-81
2023/11/06 10:52:08;;;;;;;18.20;2.90;;;;;;;20.66;48.85;100427.13;105092;1291;73532;-81
2023/11/06 10:54:35;;;;;;;11.80;3.00;;;;;;;20.66;48.84;100427.17;104910;1290;72699;-81
2023/11/06 10:57:01;;;;;;;10.10;2.60;;;;;;;20.66;48.77;100433.81;104724;1292;60022;-81
2023/11/06 10:59:29;;;;;;;11.70;2.80;;;;;;;20.65;48.70;100430.46;106023;1288;57426;-82
2023/11/06 11:01:58;;;;;;;12.80;3.00;;;;;;;20.64;48.73;100432.13;105791;1294;72465;-81
2023/11/06 11:04:24;;;;;;;21.70;3.30;;;;;;;20.62;48.72;100436.05;105806;1288;73150;-81
2023/11/06 11:06:53;;;;;;;13.40;2.80;;;;;;;20.61;48.95;100441.11;106014;1288;57746;-81
2023/11/06 11:09:19;;;;;;;11.40;3.30;;;;;;;20.60;48.79;100441.91;105888;1288;59057;-81
2023/11/06 11:11:45;;;;;;;18.60;3.20;;;;;;;20.59;48.78;100441.42;105958;1292;58124;-82
2023/11/06 11:14:13;;;;;;;13.50;3.00;;;;;;;20.59;48.74;100442.65;105961;1287;58100;-82
2023/11/06 11:16:45;;;;;;;12.60;2.50;;;;;;;20.60;48.78;100442.41;106005;1290;60083;-82
2023/11/06 11:19:33;;;;;;;11.70;2.70;;;;;;;20.61;48.82;100439.86;106062;1287;62281;-82
2023/11/06 11:22:06;;;;;;;18.30;3.30;;;;;;;20.62;48.76;100442.65;106221;1289;72866;-82
2023/11/06 11:24:54;;;;;;;13.90;3.00;;;;;;;20.63;48.80;100447.40;106091;1288;71956;-82
2023/11/06 11:27:27;;;;;;;11.50;2.90;;;;;;;20.63;48.74;100441.70;105180;1289;60823;-81
2023/11/06 11:30:13;;;;;;;14.80;2.70;;;;;;;20.62;48.59;100446.23;105008;1292;60838;-82
2023/11/06 11:32:49;;;;;;;14.70;2.70;;;;;;;20.62;48.49;100451.94;104836;1293;73245;-81
2023/11/06 11:35:17;;;;;;;15.10;2.70;;;;;;;20.63;48.48;100457.59;104444;1292;73378;-81
2023/11/06 11:38:00;;;;;;;9.90;2.80;;;;;;;20.64;48.49;100462.55;104558;1292;60025;-83
2023/11/06 11:41:02;;;;;;;17.70;3.20;;;;;;;20.64;48.47;100459.13;104248;1296;59711;-81
2023/11/06 11:43:28;;;;;;;28.30;3.00;;;;;;;20.63;48.59;100463.86;104132;1301;72663;-81
2023/11/06 11:45:54;;;;;;;15.40;2.70;;;;;;;20.64;48.65;100462.55;104223;1298;58172;-81
2023/11/06 11:48:51;;;;;;;15.50;2.30;;;;;;;20.64;48.68;100459.82;103908;1299;60220;-81
2023/11/06 11:51:51;;;;;;;11.40;3.00;;;;;;;20.67;48.73;100460.90;103870;1301;61432;-82
2023/11/06 11:54:27;;;;;;;8.80;2.50;;;;;;;20.67;48.63;100462.52;104205;1299;72676;-82
2023/11/06 11:56:52;;;;;;;7.00;2.20;;;;;;;20.67;48.28;100461.58;104054;1298;72985;-82
2023/11/06 11:59:18;;;;;;;9.60;2.50;;;;;;;20.67;48.26;100463.54;104017;1303;59762;-83
2023/11/06 12:01:45;;;;;;;12.90;2.70;;;;;;;20.68;48.00;100463.16;104453;1298;60746;-83
2023/11/06 12:04:23;;;;;;;10.70;2.50;;;;;;;20.68;47.93;100464.39;104247;1304;59679;-81
2023/11/06 12:06:58;;;;;;;17.30;3.50;;;;;;;20.70;47.85;100463.70;104159;1298;72774;-81